香港 の空港の天気 - METARとTAF

香港国際空港 ( VHHH / HKG ) - 香港 赤リョウ角
飛行場実況気象(Metar)
観測時間02/22 01:00 HKT (02/21 17:00 UTC)
風向・風速西北西 4m/s
視程10km以上
天気現象弱い雨
少しの雲 雲底高度 240m
全天の4割程度の雲 雲底高度 760m
全天の8割程度の雲 雲底高度 1220m
気温19℃
湿度88%
気圧1018hPa
METARVHHH 211700Z 29007KT 270V340 9999 -RA FEW008 SCT025 BKN040 19/17 Q1018 NOSIG
過去の天気等 Google飛行場航空写真 Wunderground天気予報

過去48時間のMETAR

飛行場予報(TAF)
発表時間: 2/22 01:00 HKT (2/21 17:00 UTC)
予報対象時間: 22日2時 HKT ~ 23日8時 HKT
風向・風速北北西 5m/s
視程8000m
少しの雲 雲底高度 300m
全天の4割程度の雲 雲底高度 760m
22日2時 HKT ~ 22日5時 HKT に一時的に
視程4000m
天気現象しゅう雨
22日17時 HKT ~ 22日19時 HKT に徐々に
風向・風速北東 5m/s
TAF VHHH 211700Z 2118/2224 33010KT 8000 FEW010 SCT025 TX23/2207Z TN17/2122Z TN18/2222Z
TEMPO 2118/2121 4000 SHRA
BECMG 2209/2211 04010KT